Time;durP1;ratioP1;P1;durP2;ratioP2;P2;SDS_P1;SDS_P2;PMS_P1;PMS_P2;Temp;Humidity;BMP_temperature;BMP_pressure;BME280_temperature;BME280_humidity;BME280_pressure;Samples;Min_cycle;Max_cycle;Signal;HPM_P1;HPM_P2
2022/09/30 00:01:26;;;;;;;10.18;5.78;;;10.70;99.90;;;;;;5069807;28;20159;-72
2022/09/30 00:03:54;;;;;;;9.73;5.82;;;10.70;99.90;;;;;;5069398;28;20042;-74
2022/09/30 00:06:19;;;;;;;9.98;5.57;;;10.70;99.90;;;;;;5069984;28;20086;-73
2022/09/30 00:08:46;;;;;;;8.82;5.65;;;10.70;99.90;;;;;;5069790;28;20083;-73
2022/09/30 00:11:18;;;;;;;10.38;5.97;;;10.60;99.90;;;;;;5069427;28;20032;-73
2022/09/30 00:13:47;;;;;;;18.33;5.78;;;10.60;99.90;;;;;;5070184;28;20020;-72
2022/09/30 00:16:14;;;;;;;10.85;6.68;;;10.50;99.90;;;;;;5069724;28;20031;-73
2022/09/30 00:18:42;;;;;;;12.05;6.60;;;10.50;99.90;;;;;;5069724;28;20032;-73
2022/09/30 00:21:09;;;;;;;13.30;6.15;;;10.40;99.90;;;;;;5069444;28;20028;-74
2022/09/30 00:23:36;;;;;;;10.93;6.78;;;10.40;99.90;;;;;;5069398;28;20024;-73
2022/09/30 00:26:06;;;;;;;12.40;6.93;;;10.40;99.90;;;;;;5070170;28;20025;-74
2022/09/30 00:28:33;;;;;;;11.60;6.25;;;10.40;99.90;;;;;;5068546;28;20051;-73
2022/09/30 00:31:04;;;;;;;12.98;6.60;;;10.40;99.90;;;;;;5052372;28;20137;-75
2022/09/30 00:33:29;;;;;;;13.90;7.00;;;10.40;99.90;;;;;;5054177;28;20021;-73
2022/09/30 00:35:55;;;;;;;13.98;6.82;;;10.40;99.90;;;;;;5072963;28;20097;-74
2022/09/30 00:38:21;;;;;;;14.15;7.18;;;10.30;99.90;;;;;;5073423;28;20579;-73
2022/09/30 00:40:48;;;;;;;10.40;6.43;;;10.30;99.90;;;;;;5073530;28;20025;-73
2022/09/30 00:43:16;;;;;;;10.57;6.45;;;10.30;99.90;;;;;;5072514;28;20035;-74
2022/09/30 00:45:58;;;;;;;9.82;6.28;;;10.30;99.90;;;;;;5073037;28;20099;-73
2022/09/30 00:48:33;;;;;;;14.85;7.60;;;10.20;99.90;;;;;;5073397;28;20047;-73
2022/09/30 00:51:01;;;;;;;13.07;7.45;;;10.20;99.90;;;;;;5073550;28;20021;-73
2022/09/30 00:53:28;;;;;;;12.75;6.85;;;10.20;99.90;;;;;;5073539;28;20036;-74
2022/09/30 00:56:05;;;;;;;17.75;7.15;;;10.20;99.90;;;;;;5072928;28;20060;-72
2022/09/30 00:58:36;;;;;;;12.48;7.15;;;10.20;99.90;;;;;;5072679;28;20024;-73
2022/09/30 01:01:03;;;;;;;13.07;7.10;;;10.20;99.90;;;;;;5073414;28;20127;-72
2022/09/30 01:03:32;;;;;;;15.48;6.68;;;10.10;99.90;;;;;;5072379;28;20028;-72
2022/09/30 01:05:58;;;;;;;13.00;6.90;;;10.10;99.90;;;;;;5073854;28;20100;-73
2022/09/30 01:08:25;;;;;;;13.07;7.07;;;10.10;99.90;;;;;;5073145;28;20063;-74
2022/09/30 01:10:51;;;;;;;10.38;6.63;;;10.10;99.90;;;;;;5072982;28;20356;-72
2022/09/30 01:13:17;;;;;;;10.60;6.22;;;10.00;99.90;;;;;;5072833;28;20535;-73
2022/09/30 01:16:11;;;;;;;12.48;6.80;;;10.10;99.90;;;;;;5072562;28;20029;-71
2022/09/30 01:18:37;;;;;;;10.75;6.47;;;10.00;99.90;;;;;;5072447;28;20032;-72
2022/09/30 01:21:37;;;;;;;14.73;7.80;;;10.00;99.90;;;;;;5073183;28;20017;-72
2022/09/30 01:24:31;;;;;;;10.50;6.65;;;10.00;99.90;;;;;;5073591;28;20107;-72
2022/09/30 01:27:09;;;;;;;13.57;7.68;;;10.00;99.90;;;;;;5072186;28;20025;-71
2022/09/30 01:29:57;;;;;;;13.13;7.97;;;10.00;99.90;;;;;;5072770;28;20031;-71
2022/09/30 01:32:43;;;;;;;13.35;7.25;;;10.00;99.90;;;;;;5072031;28;20438;-72
2022/09/30 01:35:35;;;;;;;15.77;7.10;;;10.00;99.90;;;;;;5071658;28;20032;-72
2022/09/30 01:38:19;;;;;;;12.43;7.22;;;9.90;99.90;;;;;;5072213;28;20057;-74
2022/09/30 01:40:52;;;;;;;12.43;7.17;;;9.90;99.90;;;;;;5072580;28;20025;-73
2022/09/30 01:43:47;;;;;;;15.07;7.75;;;9.90;99.90;;;;;;5071963;28;20033;-72
2022/09/30 01:46:42;;;;;;;17.60;7.80;;;9.90;99.90;;;;;;5072024;28;20040;-72
2022/09/30 01:49:33;;;;;;;13.85;7.90;;;9.90;99.90;;;;;;5072545;28;20083;-72
2022/09/30 01:52:20;;;;;;;12.13;7.13;;;9.80;99.90;;;;;;5072312;28;20029;-72
2022/09/30 01:55:11;;;;;;;13.90;7.85;;;9.80;99.90;;;;;;5071915;28;20032;-74
2022/09/30 01:58:15;;;;;;;16.13;8.15;;;9.80;99.90;;;;;;5066166;28;20135;-72
2022/09/30 02:00:48;;;;;;;15.27;7.65;;;9.70;99.90;;;;;;5068891;28;20052;-73
2022/09/30 02:03:21;;;;;;;14.75;8.35;;;9.70;99.90;;;;;;5072365;28;20614;-71
2022/09/30 02:05:53;;;;;;;13.82;8.35;;;9.70;99.90;;;;;;5072103;28;20020;-72
2022/09/30 02:08:28;;;;;;;11.65;7.43;;;9.70;99.90;;;;;;5053994;28;20157;-72
2022/09/30 02:11:03;;;;;;;14.73;8.15;;;9.60;99.90;;;;;;5071720;28;20029;-73
2022/09/30 02:13:44;;;;;;;12.82;8.05;;;9.60;99.90;;;;;;5051993;28;20038;-72
2022/09/30 02:16:16;;;;;;;18.88;9.35;;;9.60;99.90;;;;;;5052382;28;20105;-72
2022/09/30 02:18:49;;;;;;;21.50;8.93;;;9.60;99.90;;;;;;5052278;28;20025;-73
2022/09/30 02:21:20;;;;;;;14.55;8.65;;;9.60;99.90;;;;;;5050967;28;20089;-74
2022/09/30 02:23:48;;;;;;;20.20;8.02;;;9.60;99.90;;;;;;5051784;28;20028;-72
2022/09/30 02:26:27;;;;;;;16.80;9.05;;;9.60;99.90;;;;;;5049823;28;20075;-72
2022/09/30 02:29:11;;;;;;;16.55;9.15;;;9.60;99.90;;;;;;5051173;28;20048;-73
2022/09/30 02:31:39;;;;;;;;;;;9.60;99.90;;;;;;5052422;28;20055;-72
2022/09/30 02:34:13;;;;;;;12.68;7.47;;;9.60;99.90;;;;;;5051329;28;19905;-72
2022/09/30 02:36:44;;;;;;;;;;;9.60;99.90;;;;;;5051983;28;20037;-72
2022/09/30 02:39:19;;;;;;;15.00;8.18;;;9.60;99.90;;;;;;5051642;28;19944;-72
2022/09/30 02:41:52;;;;;;;12.27;7.53;;;9.60;99.90;;;;;;5051242;28;20029;-73
2022/09/30 02:44:19;;;;;;;19.35;9.52;;;9.50;99.90;;;;;;5051519;28;20045;-72
2022/09/30 02:47:11;;;;;;;14.80;8.20;;;9.60;99.90;;;;;;5050728;28;20021;-72
2022/09/30 02:49:48;;;;;;;16.85;9.40;;;9.60;99.90;;;;;;5051323;28;20049;-73
2022/09/30 02:52:52;;;;;;;18.73;9.32;;;9.50;99.90;;;;;;5051709;28;20037;-72
2022/09/30 02:55:40;;;;;;;13.63;8.20;;;9.50;99.90;;;;;;5049972;28;20639;-72
2022/09/30 02:58:14;;;;;;;14.55;8.45;;;9.60;99.90;;;;;;5039957;28;20071;-72
2022/09/30 03:00:40;;;;;;;19.50;9.07;;;9.60;99.90;;;;;;5049203;28;20044;-74
2022/09/30 03:03:11;;;;;;;14.07;8.38;;;9.60;99.90;;;;;;5049852;28;20025;-73
2022/09/30 03:05:37;;;;;;;13.75;8.30;;;9.60;99.90;;;;;;5050324;28;20021;-73
2022/09/30 03:08:03;;;;;;;11.20;7.43;;;9.50;99.90;;;;;;5049167;28;20124;-73
2022/09/30 03:10:30;;;;;;;15.45;9.05;;;9.50;99.90;;;;;;5049818;28;20036;-72
2022/09/30 03:13:24;;;;;;;16.65;9.27;;;9.50;99.90;;;;;;5068876;28;20520;-73
2022/09/30 03:16:08;;;;;;;13.77;8.75;;;9.50;99.90;;;;;;5071867;28;20029;-73
2022/09/30 03:18:58;;;;;;;14.03;8.60;;;9.50;99.90;;;;;;5072460;28;20029;-72
2022/09/30 03:21:33;;;;;;;13.95;8.30;;;9.40;99.90;;;;;;5071956;28;20259;-72
2022/09/30 03:24:27;;;;;;;16.50;7.63;;;9.40;99.90;;;;;;5054091;28;20050;-72
2022/09/30 03:27:13;;;;;;;13.57;8.13;;;9.40;99.90;;;;;;5072195;28;20032;-73
2022/09/30 03:30:05;;;;;;;15.98;8.18;;;9.40;99.90;;;;;;5071567;28;20124;-73
2022/09/30 03:32:51;;;;;;;14.95;8.55;;;9.40;99.90;;;;;;5072251;28;20033;-71
2022/09/30 03:35:25;;;;;;;15.43;8.25;;;9.30;99.90;;;;;;5072243;28;20046;-73
2022/09/30 03:38:09;;;;;;;15.48;8.50;;;9.30;99.90;;;;;;5071717;28;20088;-72
2022/09/30 03:41:02;;;;;;;15.68;9.25;;;9.30;99.90;;;;;;5072005;28;20067;-73
2022/09/30 03:43:43;;;;;;;15.02;7.85;;;9.30;99.90;;;;;;5072012;28;20036;-73
2022/09/30 03:46:31;;;;;;;15.43;8.68;;;9.20;99.90;;;;;;5072165;28;20035;-72
2022/09/30 03:49:01;;;;;;;15.63;7.80;;;9.20;99.90;;;;;;5071849;28;20044;-72
2022/09/30 03:51:29;;;;;;;13.68;8.15;;;9.10;99.90;;;;;;5071829;28;20025;-71
2022/09/30 03:53:56;;;;;;;20.65;7.95;;;9.10;99.90;;;;;;5071641;28;20028;-72
2022/09/30 03:56:28;;;;;;;12.95;8.40;;;9.10;99.90;;;;;;5071835;28;20024;-72
2022/09/30 03:58:55;;;;;;;17.17;8.40;;;9.10;99.90;;;;;;5071802;28;20091;-73
2022/09/30 04:01:22;;;;;;;11.75;7.28;;;9.10;99.90;;;;;;5071807;28;20032;-71
2022/09/30 04:03:51;;;;;;;12.02;7.75;;;9.00;99.90;;;;;;5071877;28;20043;-73
2022/09/30 04:06:18;;;;;;;15.90;8.80;;;9.00;99.90;;;;;;5071749;28;20108;-73
2022/09/30 04:08:44;;;;;;;18.73;10.70;;;8.90;99.90;;;;;;5075452;28;20064;-73
2022/09/30 04:11:10;;;;;;;20.23;10.98;;;8.80;99.90;;;;;;5075631;28;20464;-75
2022/09/30 04:13:36;;;;;;;21.98;11.48;;;8.80;99.90;;;;;;5075426;28;20031;-73
2022/09/30 04:16:03;;;;;;;18.00;10.18;;;8.90;99.90;;;;;;5075565;28;20021;-72
2022/09/30 04:18:30;;;;;;;19.77;10.75;;;8.90;99.90;;;;;;5075424;28;20025;-73
2022/09/30 04:20:57;;;;;;;21.67;10.63;;;8.90;99.90;;;;;;5056837;28;20397;-73
2022/09/30 04:23:23;;;;;;;20.95;10.15;;;8.90;99.90;;;;;;5076095;28;20021;-74
2022/09/30 04:25:53;;;;;;;14.48;9.35;;;9.00;99.90;;;;;;5074922;28;20047;-74
2022/09/30 04:28:20;;;;;;;20.27;11.05;;;9.00;99.90;;;;;;5075605;28;20060;-73
2022/09/30 04:30:45;;;;;;;18.48;10.50;;;9.00;99.90;;;;;;5056645;28;20427;-73
2022/09/30 04:33:11;;;;;;;19.23;9.82;;;9.00;99.90;;;;;;5076394;28;20021;-73
2022/09/30 04:35:38;;;;;;;22.73;9.77;;;9.00;99.90;;;;;;5075438;28;20029;-73
2022/09/30 04:38:06;;;;;;;16.17;9.57;;;8.90;99.90;;;;;;5076338;28;20099;-74
2022/09/30 04:40:38;;;;;;;17.10;9.60;;;8.90;99.90;;;;;;5075623;28;20084;-71
2022/09/30 04:43:05;;;;;;;17.33;9.52;;;8.90;99.90;;;;;;5075733;28;20025;-72
2022/09/30 04:45:31;;;;;;;20.63;9.38;;;8.90;99.90;;;;;;5075228;28;20067;-73
2022/09/30 04:47:56;;;;;;;17.92;9.18;;;8.80;99.90;;;;;;5073884;28;20056;-73
2022/09/30 04:50:22;;;;;;;15.98;9.55;;;8.80;99.90;;;;;;5076491;28;20035;-72
2022/09/30 04:52:48;;;;;;;15.00;9.60;;;8.90;99.90;;;;;;5074859;28;20055;-73
2022/09/30 04:55:13;;;;;;;17.95;9.65;;;8.90;99.90;;;;;;5074343;28;20050;-72
2022/09/30 04:57:43;;;;;;;17.35;9.45;;;8.80;99.90;;;;;;5073568;28;20449;-71
2022/09/30 05:00:09;;;;;;;16.75;10.07;;;8.80;99.90;;;;;;5055463;28;20392;-71
2022/09/30 05:02:35;;;;;;;16.17;9.60;;;8.80;99.90;;;;;;5073338;28;20033;-71
2022/09/30 05:05:02;;;;;;;17.30;9.35;;;8.80;99.90;;;;;;5073975;28;20082;-73
2022/09/30 05:07:29;;;;;;;17.70;9.77;;;8.80;99.90;;;;;;5075206;28;20028;-73
2022/09/30 05:09:55;;;;;;;16.65;9.35;;;8.80;99.90;;;;;;5074308;28;20040;-72
2022/09/30 05:12:20;;;;;;;18.10;9.75;;;8.90;99.90;;;;;;5073804;28;20055;-73
2022/09/30 05:14:46;;;;;;;14.40;8.82;;;8.70;99.90;;;;;;5075476;28;20043;-73
2022/09/30 05:17:12;;;;;;;17.70;9.82;;;8.90;99.90;;;;;;5074306;28;20048;-74
2022/09/30 05:19:37;;;;;;;20.90;10.50;;;8.90;99.90;;;;;;5064071;28;20075;-73
2022/09/30 05:22:03;;;;;;;17.33;10.02;;;8.90;99.90;;;;;;5074239;28;20075;-72
2022/09/30 05:24:29;;;;;;;17.23;9.80;;;8.90;99.90;;;;;;5073975;28;20033;-72
2022/09/30 05:26:55;;;;;;;15.85;9.18;;;8.90;99.90;;;;;;5073959;28;20077;-73
2022/09/30 05:29:21;;;;;;;17.85;9.15;;;8.90;99.90;;;;;;5073561;28;20064;-72
2022/09/30 05:31:46;;;;;;;17.58;9.65;;;8.90;99.90;;;;;;5074193;28;20096;-71
2022/09/30 05:34:15;;;;;;;13.65;8.82;;;8.90;99.90;;;;;;5075230;28;20021;-72
2022/09/30 05:36:43;;;;;;;17.45;10.10;;;8.90;99.90;;;;;;5057980;28;20029;-73
2022/09/30 05:39:12;;;;;;;21.45;9.63;;;8.90;99.90;;;;;;5055591;28;20055;-73
2022/09/30 05:41:38;;;;;;;16.70;9.85;;;8.90;99.90;;;;;;5074003;28;20115;-72
2022/09/30 05:44:04;;;;;;;25.83;10.75;;;8.90;99.90;;;;;;5076509;28;20071;-74
2022/09/30 05:46:29;;;;;;;20.77;10.05;;;8.90;99.90;;;;;;5074641;28;20523;-73
2022/09/30 05:48:55;;;;;;;19.58;10.93;;;8.90;99.90;;;;;;5072988;28;20064;-72
2022/09/30 05:51:21;;;;;;;20.00;9.85;;;8.90;99.90;;;;;;5073277;28;20102;-72
2022/09/30 05:53:47;;;;;;;18.48;9.38;;;8.80;99.90;;;;;;5073828;28;20033;-74
2022/09/30 05:56:12;;;;;;;19.08;9.98;;;8.90;99.90;;;;;;5073517;28;20032;-74
2022/09/30 05:58:40;;;;;;;20.10;10.75;;;8.90;99.90;;;;;;5063888;28;20067;-74
2022/09/30 06:01:09;;;;;;;19.67;11.60;;;8.90;99.90;;;;;;5074122;28;20016;-77
2022/09/30 06:03:35;;;;;;;21.30;11.88;;;8.90;99.90;;;;;;5072945;28;20166;-74
2022/09/30 06:06:01;;;;;;;18.60;10.80;;;8.90;99.90;;;;;;5073387;28;20069;-75
2022/09/30 06:08:27;;;;;;;20.45;11.43;;;8.90;99.90;;;;;;5073980;28;20534;-74
2022/09/30 06:10:52;;;;;;;20.10;11.45;;;9.00;99.90;;;;;;5073714;28;20055;-75
2022/09/30 06:13:20;;;;;;;20.38;11.70;;;9.00;99.90;;;;;;5072119;28;20045;-74
2022/09/30 06:15:55;;;;;;;18.50;10.88;;;9.00;99.90;;;;;;5073553;28;20037;-76
2022/09/30 06:18:21;;;;;;;35.55;12.75;;;9.00;99.90;;;;;;5073278;28;20009;-73
2022/09/30 06:20:47;;;;;;;21.33;11.52;;;9.10;99.90;;;;;;5054558;28;20093;-74
2022/09/30 06:23:12;;;;;;;19.15;11.45;;;9.10;99.90;;;;;;5071898;28;20066;-75
2022/09/30 06:25:38;;;;;;;20.63;11.23;;;9.10;99.90;;;;;;5073051;28;20025;-72
2022/09/30 06:28:04;;;;;;;18.48;10.52;;;9.30;99.90;;;;;;5072593;28;20485;-73
2022/09/30 06:30:29;;;;;;;23.83;11.43;;;9.30;99.90;;;;;;5073318;28;20040;-74
2022/09/30 06:32:56;;;;;;;20.70;12.18;;;9.30;99.90;;;;;;5073395;28;20633;-75
2022/09/30 06:35:23;;;;;;;19.23;10.98;;;9.30;99.90;;;;;;5073956;28;20432;-72
2022/09/30 06:37:52;;;;;;;18.75;10.23;;;9.40;99.90;;;;;;5073451;28;20038;-73
2022/09/30 06:40:20;;;;;;;26.73;11.95;;;9.60;99.90;;;;;;5054328;28;20041;-73
2022/09/30 06:42:47;;;;;;;19.98;11.63;;;9.60;99.90;;;;;;5055405;28;20041;-74
2022/09/30 06:45:12;;;;;;;21.65;11.25;;;9.60;99.90;;;;;;5074095;28;20032;-73
2022/09/30 06:47:45;;;;;;;20.65;11.30;;;9.70;99.90;;;;;;5072115;28;20036;-75
2022/09/30 06:50:11;;;;;;;25.13;11.93;;;9.80;99.90;;;;;;5071368;28;20025;-75
2022/09/30 06:52:37;;;;;;;22.67;11.95;;;9.80;99.90;;;;;;5072200;28;20032;-73
2022/09/30 06:55:03;;;;;;;27.45;11.88;;;9.80;99.90;;;;;;5071000;28;20021;-74
2022/09/30 06:57:28;;;;;;;20.77;10.73;;;9.90;99.90;;;;;;5071429;28;20039;-74
2022/09/30 06:59:55;;;;;;;18.50;10.70;;;10.00;99.90;;;;;;5071985;28;20847;-75
2022/09/30 07:02:20;;;;;;;21.75;11.35;;;10.00;99.90;;;;;;5070881;28;20020;-73
2022/09/30 07:04:47;;;;;;;22.38;11.73;;;10.00;99.90;;;;;;5072436;28;20063;-73
2022/09/30 07:07:12;;;;;;;23.95;11.60;;;10.10;99.90;;;;;;5072567;28;20071;-73
2022/09/30 07:09:38;;;;;;;22.77;11.43;;;10.20;99.90;;;;;;5071885;28;20037;-73
2022/09/30 07:12:06;;;;;;;20.92;11.60;;;10.20;99.90;;;;;;5054154;28;20041;-72
2022/09/30 07:14:35;;;;;;;18.73;11.50;;;10.30;99.90;;;;;;5054511;28;20045;-73
2022/09/30 07:17:03;;;;;;;19.63;11.00;;;10.30;99.90;;;;;;5067606;28;20047;-72
2022/09/30 07:19:30;;;;;;;21.42;11.32;;;10.40;99.90;;;;;;5072480;28;20029;-74
2022/09/30 07:22:25;;;;;;;18.50;10.82;;;10.50;99.90;;;;;;5071318;28;20028;-73
2022/09/30 07:24:41;;;;;;;17.95;10.27;;;10.50;99.90;;;;;;5072321;28;20028;-73
2022/09/30 07:27:07;;;;;;;16.90;9.70;;;10.60;99.90;;;;;;5072288;28;20067;-72
2022/09/30 07:29:33;;;;;;;17.73;10.07;;;10.70;99.90;;;;;;5071568;28;20040;-75
2022/09/30 07:31:59;;;;;;;15.32;9.20;;;10.70;99.90;;;;;;5070442;28;20036;-74
2022/09/30 07:34:25;;;;;;;16.65;8.20;;;10.80;99.90;;;;;;5072897;28;20027;-72
2022/09/30 07:36:51;;;;;;;16.45;8.25;;;10.90;99.90;;;;;;5071960;28;20397;-73
2022/09/30 07:39:16;;;;;;;16.05;7.90;;;11.00;99.90;;;;;;5072809;28;20107;-72
2022/09/30 07:41:43;;;;;;;14.82;6.55;;;11.20;99.90;;;;;;5073003;28;20053;-74
2022/09/30 07:44:13;;;;;;;13.52;7.60;;;11.40;99.90;;;;;;5072192;28;20044;-73
2022/09/30 07:46:40;;;;;;;8.82;5.88;;;11.60;99.90;;;;;;5072884;28;20055;-74
2022/09/30 07:49:12;;;;;;;9.30;5.90;;;11.80;99.90;;;;;;5072377;28;21269;-73
2022/09/30 07:51:43;;;;;;;10.52;5.53;;;12.00;99.90;;;;;;5071905;28;20466;-72
2022/09/30 07:54:14;;;;;;;8.93;5.35;;;12.30;99.90;;;;;;5071554;28;20093;-73
2022/09/30 07:56:42;;;;;;;6.88;4.72;;;12.50;99.90;;;;;;5072436;28;20024;-74
2022/09/30 07:59:09;;;;;;;8.73;4.75;;;12.70;99.90;;;;;;5053150;28;20483;-74
2022/09/30 08:01:35;;;;;;;10.13;4.65;;;12.90;99.90;;;;;;5071202;28;20076;-74
2022/09/30 08:04:06;;;;;;;11.65;4.90;;;13.00;99.90;;;;;;5071467;28;20041;-74
2022/09/30 08:06:35;;;;;;;8.65;4.22;;;13.10;99.90;;;;;;5073258;28;20024;-73
2022/09/30 08:09:01;;;;;;;7.28;4.53;;;13.20;99.90;;;;;;5073418;28;20037;-74
2022/09/30 08:11:27;;;;;;;8.45;4.85;;;13.20;99.90;;;;;;5071170;28;20098;-73
2022/09/30 08:13:54;;;;;;;8.75;4.85;;;13.20;99.90;;;;;;5070757;28;20032;-73
2022/09/30 08:16:21;;;;;;;9.73;5.07;;;13.20;99.90;;;;;;5072126;28;20020;-75
2022/09/30 08:18:47;;;;;;;7.95;4.90;;;13.20;99.90;;;;;;5070660;28;20044;-73
2022/09/30 08:21:13;;;;;;;8.50;4.82;;;13.20;99.90;;;;;;5073165;28;20037;-74
2022/09/30 08:23:39;;;;;;;7.30;4.38;;;13.10;99.90;;;;;;5071750;28;20519;-72
2022/09/30 08:26:07;;;;;;;8.65;4.97;;;13.10;99.90;;;;;;5072025;28;20119;-75
2022/09/30 08:28:34;;;;;;;8.80;4.30;;;13.00;99.90;;;;;;5072055;28;20036;-74
2022/09/30 08:31:04;;;;;;;7.90;4.32;;;13.00;99.90;;;;;;5072355;28;20036;-75
2022/09/30 08:33:32;;;;;;;9.77;5.05;;;13.00;99.90;;;;;;5053949;28;20123;-75
2022/09/30 08:36:07;;;;;;;6.63;4.15;;;13.00;99.90;;;;;;5054474;28;20065;-75
2022/09/30 08:38:33;;;;;;;10.23;4.93;;;13.00;99.90;;;;;;5071507;28;20055;-74
2022/09/30 08:41:08;;;;;;;12.60;4.60;;;13.10;99.90;;;;;;5072376;28;20023;-75
2022/09/30 08:43:45;;;;;;;22.85;5.43;;;13.10;99.90;;;;;;5070834;28;20033;-76
2022/09/30 08:46:39;;;;;;;11.35;5.40;;;13.10;99.90;;;;;;5069891;28;20429;-73
2022/09/30 08:49:26;;;;;;;9.85;5.88;;;13.10;99.90;;;;;;5070290;28;20053;-73
2022/09/30 08:51:53;;;;;;;9.48;5.03;;;13.10;99.90;;;;;;5071121;28;20463;-73
2022/09/30 08:54:23;;;;;;;8.18;4.80;;;13.20;99.90;;;;;;5072650;28;20039;-74
2022/09/30 08:56:49;;;;;;;6.93;4.57;;;13.20;99.90;;;;;;5056650;28;20082;-77
2022/09/30 08:59:47;;;;;;;14.73;5.75;;;13.30;99.90;;;;;;5074895;28;20095;-75
2022/09/30 09:02:16;;;;;;;9.88;4.72;;;13.30;99.90;;;;;;5073743;28;20021;-72
2022/09/30 09:04:42;;;;;;;9.75;6.32;;;13.40;99.90;;;;;;5074244;28;20096;-73
2022/09/30 09:07:28;;;;;;;11.13;5.68;;;13.50;99.90;;;;;;5074484;28;20017;-76
2022/09/30 09:10:21;;;;;;;10.38;6.05;;;13.50;99.90;;;;;;5073098;28;20039;-74
2022/09/30 09:13:26;;;;;;;15.90;5.57;;;13.60;99.90;;;;;;5054645;28;20068;-75
2022/09/30 09:16:03;;;;;;;11.80;5.28;;;13.70;99.90;;;;;;5057811;28;20032;-74
2022/09/30 09:18:41;;;;;;;10.43;5.45;;;13.80;99.90;;;;;;5073321;28;20044;-74
2022/09/30 09:21:28;;;;;;;9.10;5.43;;;13.90;99.90;;;;;;5072235;28;20419;-74
2022/09/30 09:23:59;;;;;;;11.75;5.00;;;13.90;99.90;;;;;;5072912;28;20059;-77
2022/09/30 09:26:29;;;;;;;10.30;4.60;;;14.00;99.90;;;;;;5075432;28;20025;-73
2022/09/30 09:29:05;;;;;;;13.55;5.07;;;14.10;99.90;;;;;;5074527;28;20033;-73
2022/09/30 09:31:31;;;;;;;6.70;4.65;;;14.20;99.90;;;;;;5074441;28;20025;-74
2022/09/30 09:34:12;;;;;;;8.77;4.65;;;14.20;99.90;;;;;;5074416;28;20063;-75
2022/09/30 09:40:34;;;;;;;8.20;4.18;;;14.40;99.90;;;;;;5073985;28;20031;-76
2022/09/30 09:43:05;;;;;;;7.75;4.03;;;14.40;99.90;;;;;;5074410;28;20025;-76
2022/09/30 09:45:44;;;;;;;7.35;4.32;;;14.40;99.90;;;;;;5073984;28;20547;-75
2022/09/30 09:48:14;;;;;;;8.30;4.43;;;14.50;99.90;;;;;;5073719;28;20120;-76
2022/09/30 09:51:11;;;;;;;11.02;4.85;;;14.60;99.90;;;;;;5076317;28;20021;-74
2022/09/30 09:53:48;;;;;;;13.07;4.78;;;14.60;99.90;;;;;;5075191;28;20028;-74
2022/09/30 09:56:19;;;;;;;7.85;4.30;;;14.80;99.90;;;;;;5072981;28;20506;-75
2022/09/30 09:59:08;;;;;;;10.07;4.15;;;14.90;99.90;;;;;;5072623;28;20041;-75
2022/09/30 10:01:58;;;;;;;9.57;5.32;;;14.90;99.90;;;;;;5073014;28;20032;-76
2022/09/30 10:04:29;;;;;;;9.60;4.68;;;14.90;99.90;;;;;;5072184;28;20040;-69
2022/09/30 10:07:22;;;;;;;7.75;4.90;;;15.00;99.90;;;;;;5073797;28;20032;-74
2022/09/30 10:09:47;;;;;;;9.07;4.60;;;15.10;99.90;;;;;;5071554;28;20076;-74
2022/09/30 10:12:13;;;;;;;7.10;3.95;;;15.10;99.90;;;;;;5072775;28;20051;-75
2022/09/30 10:15:00;;;;;;;9.45;3.70;;;15.20;99.90;;;;;;5073222;28;20037;-75
2022/09/30 10:17:33;;;;;;;5.82;3.97;;;15.20;99.90;;;;;;5072493;28;20058;-77
2022/09/30 10:20:05;;;;;;;9.27;4.28;;;15.30;99.90;;;;;;5073444;28;20025;-76
2022/09/30 10:22:32;;;;;;;13.93;4.60;;;15.40;99.90;;;;;;5072591;28;20025;-75
2022/09/30 10:25:16;;;;;;;8.93;4.85;;;15.50;99.90;;;;;;5072930;28;20027;-74
2022/09/30 10:27:58;;;;;;;7.82;4.80;;;15.60;99.90;;;;;;5073014;28;20062;-78
2022/09/30 10:30:49;;;;;;;8.65;5.10;;;15.60;99.90;;;;;;5072761;28;20735;-71
2022/09/30 10:33:20;;;;;;;7.13;4.22;;;15.60;99.90;;;;;;5072963;28;20028;-75
2022/09/30 10:35:59;;;;;;;8.18;4.35;;;15.60;99.90;;;;;;5073023;28;20025;-73
2022/09/30 10:38:28;;;;;;;7.63;4.50;;;15.60;99.90;;;;;;5072655;28;20032;-75
2022/09/30 10:40:54;;;;;;;7.22;4.22;;;15.70;99.90;;;;;;5072918;28;20043;-72
2022/09/30 10:43:31;;;;;;;8.00;4.70;;;15.80;99.90;;;;;;5072839;28;20029;-76
2022/09/30 10:46:02;;;;;;;7.28;4.63;;;15.90;99.90;;;;;;5072938;28;20120;-76
2022/09/30 10:48:32;;;;;;;12.65;4.32;;;16.00;99.90;;;;;;5055036;28;20093;-75
2022/09/30 10:50:58;;;;;;;6.97;4.70;;;15.90;99.90;;;;;;5073059;28;20031;-74
2022/09/30 10:53:28;;;;;;;6.75;4.20;;;15.80;99.90;;;;;;5072705;28;20017;-75
2022/09/30 10:55:55;;;;;;;8.10;3.72;;;15.60;99.90;;;;;;5072802;28;20047;-75
2022/09/30 10:58:44;;;;;;;7.10;3.47;;;15.50;99.90;;;;;;5072293;28;20062;-73
2022/09/30 11:01:25;;;;;;;7.18;3.75;;;15.60;99.90;;;;;;5063682;28;20041;-72
2022/09/30 11:04:07;;;;;;;5.28;2.97;;;15.70;99.90;;;;;;5072845;28;20037;-73
2022/09/30 11:06:38;;;;;;;5.72;3.22;;;15.90;99.90;;;;;;5054614;28;20530;-76
2022/09/30 11:09:08;;;;;;;5.35;3.05;;;16.10;99.90;;;;;;5073188;28;20389;-74
2022/09/30 11:11:38;;;;;;;7.55;3.20;;;16.20;99.90;;;;;;5072374;28;20047;-75
2022/09/30 11:14:10;;;;;;;8.95;3.80;;;16.30;99.90;;;;;;5054498;28;20104;-74
2022/09/30 11:16:48;;;;;;;6.97;3.80;;;16.20;99.90;;;;;;5072220;28;20502;-73
2022/09/30 11:19:27;;;;;;;6.75;4.10;;;16.10;99.90;;;;;;5070978;28;20029;-74
2022/09/30 11:22:14;;;;;;;7.45;4.05;;;16.20;99.90;;;;;;5072035;28;20037;-76
2022/09/30 11:24:43;;;;;;;7.40;3.95;;;16.30;99.90;;;;;;5071166;28;20472;-73
2022/09/30 11:27:28;;;;;;;8.05;4.43;;;16.40;99.90;;;;;;5072248;28;20018;-75
2022/09/30 11:30:11;;;;;;;8.73;4.15;;;16.10;99.90;;;;;;5071073;28;20064;-75
2022/09/30 11:32:39;;;;;;;7.53;3.97;;;15.90;99.90;;;;;;5072252;28;20032;-75
2022/09/30 11:35:34;;;;;;;6.95;3.92;;;15.80;99.90;;;;;;5070327;28;20051;-74
2022/09/30 11:38:06;;;;;;;;;;;15.80;99.90;;;;;;5064929;28;20040;-75
2022/09/30 11:41:06;;;;;;;9.73;5.28;;;15.80;99.90;;;;;;5071041;28;20332;-76
2022/09/30 11:44:01;;;;;;;10.32;5.32;;;15.80;99.90;;;;;;5071751;28;20496;-75
2022/09/30 11:46:38;;;;;;;9.57;4.78;;;15.90;99.90;;;;;;5054024;28;20025;-75
2022/09/30 11:49:28;;;;;;;7.25;4.45;;;16.10;99.90;;;;;;5072128;28;20040;-74
2022/09/30 11:52:08;;;;;;;8.88;4.65;;;16.10;99.90;;;;;;5071107;28;20036;-78
2022/09/30 11:54:44;;;;;;;7.50;4.05;;;16.10;99.90;;;;;;5075209;28;20052;-74
2022/09/30 11:57:28;;;;;;;7.60;3.92;;;16.20;99.90;;;;;;5071814;28;20035;-77
2022/09/30 12:00:14;;;;;;;6.10;4.10;;;16.40;99.90;;;;;;5070339;28;20035;-76
2022/09/30 12:03:18;;;;;;;5.50;3.58;;;16.60;99.90;;;;;;5071715;28;20101;-77
2022/09/30 12:06:10;;;;;;;5.40;2.92;;;16.60;99.90;;;;;;5037319;28;20033;-76
2022/09/30 12:08:43;;;;;;;4.10;2.88;;;16.40;99.90;;;;;;5053833;28;20097;-77
2022/09/30 12:11:18;;;;;;;7.50;3.10;;;16.40;99.90;;;;;;5071607;28;20033;-75
2022/09/30 12:13:55;;;;;;;9.05;3.40;;;16.40;99.90;;;;;;5070924;28;20098;-72
2022/09/30 12:16:24;;;;;;;4.55;2.53;;;16.30;99.90;;;;;;5072443;28;20383;-76
2022/09/30 12:18:56;;;;;;;8.07;2.28;;;16.10;99.90;;;;;;5052472;28;20023;-73
2022/09/30 12:21:41;;;;;;;3.70;2.20;;;16.00;99.90;;;;;;5071779;28;20055;-73
2022/09/30 12:24:22;;;;;;;;;;;16.00;99.90;;;;;;5054848;28;20032;-75
2022/09/30 12:26:49;;;;;;;6.65;3.10;;;15.90;99.90;;;;;;5056512;28;19958;-72
2022/09/30 12:32:21;;;;;;;3.00;2.00;;;16.10;99.90;;;;;;5073893;28;20078;-74
2022/09/30 12:35:02;;;;;;;3.50;1.80;;;16.60;99.90;;;;;;5076474;28;20021;-75
2022/09/30 12:37:37;;;;;;;4.18;1.67;;;17.00;99.90;;;;;;5073808;28;20036;-75
2022/09/30 12:40:31;;;;;;;3.00;1.92;;;17.20;99.90;;;;;;5074794;28;20036;-75
2022/09/30 12:43:29;;;;;;;2.83;2.15;;;17.40;99.90;;;;;;5075600;28;20021;-72
2022/09/30 12:46:11;;;;;;;7.45;3.80;;;17.30;99.90;;;;;;5062492;28;20060;-74
2022/09/30 12:48:48;;;;;;;3.85;2.28;;;17.30;99.90;;;;;;5075367;28;20098;-72
2022/09/30 12:51:31;;;;;;;4.50;3.15;;;17.30;99.90;;;;;;5074527;28;20097;-77
2022/09/30 12:54:19;;;;;;;7.38;2.75;;;17.30;99.90;;;;;;5074621;28;20032;-75
2022/09/30 12:56:52;;;;;;;5.13;3.22;;;17.40;99.90;;;;;;5074480;28;20037;-74
2022/09/30 12:59:25;;;;;;;8.27;3.17;;;17.20;99.90;;;;;;5074436;28;20096;-74
2022/09/30 13:01:51;;;;;;;5.50;3.83;;;17.00;99.90;;;;;;5074525;28;20025;-75
2022/09/30 13:04:35;;;;;;;7.88;4.07;;;16.90;99.90;;;;;;5055245;28;20024;-72
2022/09/30 13:07:01;;;;;;;10.20;4.70;;;17.00;99.90;;;;;;5073860;28;20048;-72
2022/09/30 13:09:36;;;;;;;6.45;4.15;;;16.80;99.90;;;;;;5058187;28;20056;-74
2022/09/30 13:12:01;;;;;;;8.88;4.30;;;16.70;99.90;;;;;;5072425;28;20052;-74
2022/09/30 13:14:39;;;;;;;6.75;4.15;;;16.50;99.90;;;;;;5076121;28;20025;-72
2022/09/30 13:17:07;;;;;;;6.60;4.05;;;16.50;99.90;;;;;;5057197;28;20067;-75
2022/09/30 13:19:40;;;;;;;14.68;5.45;;;16.70;99.90;;;;;;5057385;28;20037;-77
2022/09/30 13:25:11;;;;;;;8.07;5.10;;;17.40;99.90;;;;;;5074031;28;20036;-76